createdAt,value
2018-08-20T00:00:47.166Z,24.60
2018-08-20T00:03:22.288Z,24.50
2018-08-20T00:05:53.266Z,24.50
2018-08-20T00:08:22.647Z,24.50
2018-08-20T00:10:54.937Z,24.40
2018-08-20T00:13:23.421Z,24.40
2018-08-20T00:15:51.891Z,24.40
2018-08-20T00:18:25.507Z,24.40
2018-08-20T00:20:53.900Z,24.40
2018-08-20T00:23:22.756Z,24.30
2018-08-20T00:25:52.329Z,24.30
2018-08-20T00:28:20.608Z,24.30
2018-08-20T00:30:48.909Z,24.20
2018-08-20T00:33:17.232Z,24.20
2018-08-20T00:35:45.537Z,24.20
2018-08-20T00:38:14.948Z,24.20
2018-08-20T00:40:43.774Z,24.20
2018-08-20T00:43:12.106Z,24.20
2018-08-20T00:45:40.738Z,24.10
2018-08-20T00:48:09.029Z,24.10
2018-08-20T00:50:37.349Z,24.10
2018-08-20T00:53:05.638Z,24.10
2018-08-20T00:55:33.996Z,24.00
2018-08-20T00:58:02.290Z,24.00
2018-08-20T01:00:30.589Z,24.00
2018-08-20T01:02:58.869Z,24.00
2018-08-20T01:05:27.168Z,23.90
2018-08-20T01:07:55.510Z,23.90
2018-08-20T01:10:23.915Z,23.90
2018-08-20T01:12:52.231Z,23.90
2018-08-20T01:15:20.516Z,23.90
2018-08-20T01:17:48.855Z,23.90
2018-08-20T01:20:17.284Z,23.80
2018-08-20T01:22:45.598Z,23.80
2018-08-20T01:25:13.945Z,23.80
2018-08-20T01:27:46.517Z,23.70
2018-08-20T01:30:14.806Z,23.70
2018-08-20T01:32:43.105Z,23.70
2018-08-20T01:35:26.641Z,23.70
2018-08-20T01:37:55.474Z,23.60
2018-08-20T01:40:24.099Z,23.70
2018-08-20T01:42:52.358Z,23.60
2018-08-20T01:45:20.705Z,23.60
2018-08-20T01:47:49.273Z,23.60
2018-08-20T01:50:17.599Z,23.60
2018-08-20T01:52:45.901Z,23.50
2018-08-20T01:55:14.255Z,23.50
2018-08-20T01:57:42.621Z,23.50
2018-08-20T02:00:11.049Z,23.50
2018-08-20T02:02:39.393Z,23.50
2018-08-20T02:05:08.202Z,23.50
2018-08-20T02:07:36.626Z,23.50
2018-08-20T02:10:06.252Z,23.40
2018-08-20T02:12:34.534Z,23.40
2018-08-20T02:15:03.681Z,23.40
2018-08-20T02:17:32.063Z,23.40
2018-08-20T02:20:00.431Z,23.30
2018-08-20T02:22:28.750Z,23.40
2018-08-20T02:24:57.034Z,23.30
2018-08-20T02:27:25.341Z,23.30
2018-08-20T02:29:53.692Z,23.30
2018-08-20T02:32:22.021Z,23.30
2018-08-20T02:34:50.480Z,23.30
2018-08-20T02:37:18.825Z,23.30
2018-08-20T02:39:47.161Z,23.20
2018-08-20T02:42:15.529Z,23.20
2018-08-20T02:44:43.848Z,23.10
2018-08-20T02:47:12.218Z,23.20
2018-08-20T02:49:40.490Z,23.10
2018-08-20T02:52:08.825Z,23.10
2018-08-20T02:54:37.137Z,23.10
2018-08-20T02:57:05.596Z,23.10
2018-08-20T02:59:33.986Z,23.00
2018-08-20T03:02:02.360Z,23.10
2018-08-20T03:04:30.633Z,23.00
2018-08-20T03:06:59.021Z,23.00
2018-08-20T03:09:27.333Z,23.00
2018-08-20T03:11:55.655Z,23.00
2018-08-20T03:14:24.040Z,23.00
2018-08-20T03:16:52.424Z,22.90
2018-08-20T03:19:20.688Z,22.90
2018-08-20T03:21:49.022Z,22.90
2018-08-20T03:24:17.361Z,22.90
2018-08-20T03:26:45.653Z,22.90
2018-08-20T03:29:13.994Z,22.90
2018-08-20T03:31:42.861Z,22.80
2018-08-20T03:34:11.171Z,22.80
2018-08-20T03:36:39.457Z,22.80
2018-08-20T03:39:08.265Z,22.80
2018-08-20T03:41:36.529Z,22.80
2018-08-20T03:44:04.877Z,22.80
2018-08-20T03:46:33.229Z,22.70
2018-08-20T03:49:01.531Z,22.70
2018-08-20T03:51:29.865Z,22.70
2018-08-20T03:53:58.216Z,22.70
2018-08-20T03:56:26.550Z,22.70
2018-08-20T03:58:55.433Z,22.70
2018-08-20T04:01:24.970Z,22.60
2018-08-20T04:03:53.388Z,22.60
2018-08-20T04:06:21.770Z,22.60
2018-08-20T04:08:50.062Z,22.60
2018-08-20T04:11:18.333Z,22.60
2018-08-20T04:13:46.641Z,22.60
2018-08-20T04:16:14.937Z,22.60
2018-08-20T04:18:43.208Z,22.50
2018-08-20T04:21:11.520Z,22.50
2018-08-20T04:23:39.875Z,22.50
2018-08-20T04:26:08.182Z,22.50
2018-08-20T04:28:36.490Z,22.50
2018-08-20T04:31:05.376Z,22.50
2018-08-20T04:33:33.709Z,22.40
2018-08-20T04:36:02.057Z,22.50
2018-08-20T04:38:30.372Z,22.40
2018-08-20T04:40:58.714Z,22.40
2018-08-20T04:43:27.009Z,22.40
2018-08-20T04:45:55.741Z,22.40
2018-08-20T04:48:24.064Z,22.40
2018-08-20T04:50:52.493Z,22.30
2018-08-20T04:53:20.645Z,22.40
2018-08-20T04:55:48.959Z,22.40
2018-08-20T04:58:17.297Z,22.30
2018-08-20T05:00:45.579Z,22.30
2018-08-20T05:03:16.980Z,22.30
2018-08-20T05:05:45.466Z,22.30
2018-08-20T05:08:13.969Z,22.40
2018-08-20T05:10:42.335Z,22.30
2018-08-20T05:13:10.706Z,22.30
2018-08-20T05:15:39.049Z,22.30
2018-08-20T05:18:07.378Z,22.40
2018-08-20T05:20:35.741Z,22.40
2018-08-20T05:23:04.185Z,22.40
2018-08-20T05:25:32.464Z,22.30
2018-08-20T05:28:00.766Z,22.30
2018-08-20T05:30:29.201Z,22.30
2018-08-20T05:32:57.532Z,22.30
2018-08-20T05:35:25.941Z,22.30
2018-08-20T05:37:54.244Z,22.40
2018-08-20T05:40:22.613Z,22.30
2018-08-20T05:42:51.018Z,22.30
2018-08-20T05:45:19.371Z,22.30
2018-08-20T05:47:47.773Z,22.40
2018-08-20T05:50:16.062Z,22.40
2018-08-20T05:52:44.390Z,22.40
2018-08-20T05:55:12.675Z,22.40
2018-08-20T05:57:40.958Z,22.40
2018-08-20T06:00:12.178Z,22.40
2018-08-20T06:02:40.499Z,22.40
2018-08-20T06:05:08.923Z,22.40
2018-08-20T06:07:37.186Z,22.40
2018-08-20T06:10:06.302Z,22.40
2018-08-20T06:12:35.086Z,22.40
2018-08-20T06:15:03.401Z,22.40
2018-08-20T06:17:31.714Z,22.40
2018-08-20T06:19:59.993Z,22.40
2018-08-20T06:22:28.373Z,22.40
2018-08-20T06:24:57.049Z,22.40
2018-08-20T06:27:25.454Z,22.40
2018-08-20T06:29:53.678Z,22.40
2018-08-20T06:32:22.011Z,22.40
2018-08-20T06:34:50.295Z,22.50
2018-08-20T06:37:18.565Z,22.50
2018-08-20T06:39:46.847Z,22.50
2018-08-20T06:42:15.123Z,22.50
2018-08-20T06:44:43.429Z,22.50
2018-08-20T06:47:11.747Z,22.50
2018-08-20T06:49:40.038Z,22.50
2018-08-20T06:52:08.440Z,22.50
2018-08-20T06:54:36.812Z,22.50
2018-08-20T06:57:05.061Z,22.50
2018-08-20T06:59:33.362Z,22.60
2018-08-20T07:02:01.653Z,22.60
2018-08-20T07:04:29.981Z,22.60
2018-08-20T07:06:58.250Z,22.60
2018-08-20T07:09:26.610Z,22.70
2018-08-20T07:11:55.162Z,22.60
2018-08-20T07:14:23.415Z,22.50
2018-08-20T07:16:52.254Z,22.60
2018-08-20T07:19:20.562Z,22.70
2018-08-20T07:21:48.858Z,22.70
2018-08-20T07:24:19.651Z,22.80
2018-08-20T07:26:48.930Z,22.80
2018-08-20T07:29:26.781Z,22.80
2018-08-20T07:31:55.259Z,22.80
2018-08-20T07:34:23.553Z,22.80
2018-08-20T07:36:52.419Z,22.90
2018-08-20T07:39:20.706Z,22.90
2018-08-20T07:41:50.153Z,22.90
2018-08-20T07:44:18.643Z,23.00
2018-08-20T07:46:46.935Z,23.00
2018-08-20T07:49:20.262Z,23.10
2018-08-20T07:51:51.602Z,23.10
2018-08-20T07:54:21.432Z,23.10
2018-08-20T07:56:49.933Z,23.10
2018-08-20T07:59:18.709Z,23.20
2018-08-20T08:01:47.017Z,23.20
2018-08-20T08:04:15.527Z,23.20
2018-08-20T08:06:43.855Z,23.30
2018-08-20T08:09:12.399Z,23.40
2018-08-20T08:11:40.734Z,23.40
2018-08-20T08:14:09.058Z,23.50
2018-08-20T08:16:38.265Z,23.60
2018-08-20T08:19:06.582Z,23.60
2018-08-20T08:21:34.862Z,23.60
2018-08-20T08:24:03.781Z,23.70
2018-08-20T08:26:32.668Z,23.80
2018-08-20T08:29:01.067Z,23.80
2018-08-20T08:31:29.407Z,23.90
2018-08-20T08:33:57.701Z,23.90
2018-08-20T08:36:25.985Z,24.00
2018-08-20T08:38:54.563Z,24.10
2018-08-20T08:41:23.714Z,24.20
2018-08-20T08:43:52.070Z,24.20
2018-08-20T08:46:20.367Z,24.20
2018-08-20T08:48:48.645Z,24.20
2018-08-20T08:51:17.289Z,24.30
2018-08-20T08:53:45.559Z,24.40
2018-08-20T08:56:13.850Z,24.50
2018-08-20T08:58:42.165Z,24.50
2018-08-20T09:01:11.147Z,24.60
2018-08-20T09:03:39.402Z,24.60
2018-08-20T09:06:07.698Z,24.70
2018-08-20T09:08:36.335Z,24.70
2018-08-20T09:11:04.733Z,24.80
2018-08-20T09:13:33.044Z,24.90
2018-08-20T09:16:01.344Z,24.90
2018-08-20T09:18:29.618Z,24.90
2018-08-20T09:20:57.894Z,25.00
2018-08-20T09:23:26.225Z,25.10
2018-08-20T09:25:54.534Z,25.20
2018-08-20T09:28:22.829Z,25.20
2018-08-20T09:30:51.177Z,25.20
2018-08-20T09:33:19.542Z,25.30
2018-08-20T09:35:47.810Z,25.40
2018-08-20T09:38:16.118Z,25.40
2018-08-20T09:40:44.434Z,25.50
2018-08-20T09:43:12.695Z,25.60
2018-08-20T09:45:40.997Z,25.60
2018-08-20T09:48:09.278Z,25.70
2018-08-20T09:50:37.555Z,25.70
2018-08-20T09:53:05.893Z,25.80
2018-08-20T09:55:36.182Z,25.90
2018-08-20T09:58:04.469Z,26.00
2018-08-20T10:00:37.943Z,26.00
2018-08-20T10:03:06.253Z,26.00
2018-08-20T10:05:36.104Z,26.10
2018-08-20T10:08:04.523Z,26.10
2018-08-20T10:10:32.825Z,26.20
2018-08-20T10:13:01.087Z,26.30
2018-08-20T10:15:31.381Z,26.30
2018-08-20T10:17:59.662Z,26.40
2018-08-20T10:20:28.057Z,26.50
2018-08-20T10:22:56.366Z,26.50
2018-08-20T10:25:27.611Z,26.60
2018-08-20T10:27:55.946Z,26.60
2018-08-20T10:30:24.398Z,26.70
2018-08-20T10:32:54.527Z,26.80
2018-08-20T10:35:23.008Z,26.80
2018-08-20T10:37:51.420Z,26.80
2018-08-20T10:40:19.591Z,26.90
2018-08-20T10:42:49.626Z,27.00
2018-08-20T10:45:24.248Z,27.00
2018-08-20T10:47:52.677Z,27.10
2018-08-20T10:50:21.234Z,27.10
2018-08-20T10:52:52.694Z,27.20
2018-08-20T10:55:22.645Z,27.10
2018-08-20T10:57:54.647Z,27.20
2018-08-20T11:00:23.369Z,27.30
2018-08-20T11:02:55.842Z,27.40
2018-08-20T11:05:24.758Z,27.50
2018-08-20T11:07:53.065Z,27.50
2018-08-20T11:10:25.039Z,27.60
2018-08-20T11:12:55.582Z,27.60
2018-08-20T11:15:25.510Z,27.70
2018-08-20T11:17:53.813Z,27.70
2018-08-20T11:20:22.098Z,27.70
2018-08-20T11:22:50.367Z,27.80
2018-08-20T11:25:18.647Z,27.80
2018-08-20T11:27:46.895Z,27.90
2018-08-20T11:30:15.649Z,27.90
2018-08-20T11:32:43.929Z,28.00
2018-08-20T11:35:12.492Z,28.00
2018-08-20T11:37:40.902Z,28.00
2018-08-20T11:40:09.592Z,28.00
2018-08-20T11:42:38.302Z,28.10
2018-08-20T11:45:08.826Z,28.20
2018-08-20T11:47:37.221Z,28.20
2018-08-20T11:50:05.528Z,28.30
2018-08-20T11:52:37.519Z,28.40
2018-08-20T11:55:05.820Z,28.40
2018-08-20T11:57:34.244Z,28.40
2018-08-20T12:00:02.538Z,28.40
2018-08-20T12:02:31.073Z,28.50
2018-08-20T12:04:59.388Z,28.60
2018-08-20T12:07:27.766Z,28.60
2018-08-20T12:09:56.058Z,28.60
2018-08-20T12:12:24.521Z,28.60
2018-08-20T12:14:52.773Z,28.60
2018-08-20T12:17:21.132Z,28.50
2018-08-20T12:19:50.162Z,28.60
2018-08-20T12:22:18.481Z,28.70
2018-08-20T12:24:46.750Z,28.70
2018-08-20T12:27:15.017Z,28.80
2018-08-20T12:29:43.310Z,28.90
2018-08-20T12:32:11.620Z,28.90
2018-08-20T12:34:39.911Z,28.90
2018-08-20T12:37:08.262Z,28.90
2018-08-20T12:39:36.566Z,29.00
2018-08-20T12:42:05.234Z,29.10
2018-08-20T12:44:33.568Z,29.10
2018-08-20T12:47:01.870Z,29.10
2018-08-20T12:49:30.166Z,29.20
2018-08-20T12:51:58.465Z,29.20
2018-08-20T12:54:26.729Z,29.10
2018-08-20T12:56:54.994Z,29.20
2018-08-20T12:59:23.257Z,29.20
2018-08-20T13:01:51.548Z,29.30
2018-08-20T13:04:19.814Z,29.20
2018-08-20T13:06:48.098Z,29.20
2018-08-20T13:09:16.403Z,29.30
2018-08-20T13:11:44.712Z,29.30
2018-08-20T13:14:12.984Z,29.40
2018-08-20T13:16:41.273Z,29.40
2018-08-20T13:19:09.546Z,29.40
2018-08-20T13:21:37.813Z,29.50
2018-08-20T13:24:06.322Z,29.60
2018-08-20T13:26:34.606Z,29.60
2018-08-20T13:29:02.949Z,29.60
2018-08-20T13:31:31.235Z,29.70
2018-08-20T13:33:59.553Z,29.60
2018-08-20T13:36:27.818Z,29.70
2018-08-20T13:38:56.194Z,29.70
2018-08-20T13:41:24.466Z,29.70
2018-08-20T13:43:52.926Z,29.70
2018-08-20T13:46:21.275Z,29.70
2018-08-20T13:48:49.624Z,29.70
2018-08-20T13:51:18.010Z,29.80
2018-08-20T13:53:46.375Z,29.80
2018-08-20T13:56:14.631Z,29.90
2018-08-20T13:58:43.040Z,29.90
2018-08-20T14:01:11.461Z,29.90
2018-08-20T14:03:39.742Z,29.90
2018-08-20T14:06:08.158Z,29.90
2018-08-20T14:08:36.612Z,29.80
2018-08-20T14:11:05.088Z,29.90
2018-08-20T14:13:33.585Z,29.80
2018-08-20T14:16:01.963Z,29.90
2018-08-20T14:18:30.260Z,29.90
2018-08-20T14:21:05.433Z,29.90
2018-08-20T14:23:34.090Z,29.90
2018-08-20T14:26:02.561Z,29.90
2018-08-20T14:28:31.243Z,29.90
2018-08-20T14:30:59.530Z,29.90
2018-08-20T14:33:27.893Z,29.90
2018-08-20T14:35:56.190Z,30.00
2018-08-20T14:38:24.472Z,30.00
2018-08-20T14:40:52.813Z,30.00
2018-08-20T14:43:21.299Z,30.00
2018-08-20T14:45:55.043Z,30.00
2018-08-20T14:48:23.376Z,30.00
2018-08-20T14:50:51.737Z,30.10
2018-08-20T14:53:20.288Z,30.10
2018-08-20T14:55:48.650Z,30.00
2018-08-20T14:58:17.065Z,30.00
2018-08-20T15:00:45.430Z,29.90
2018-08-20T15:03:13.853Z,29.90
2018-08-20T15:05:42.270Z,30.00
2018-08-20T15:08:10.792Z,30.00
2018-08-20T15:10:39.089Z,29.90
2018-08-20T15:13:07.572Z,29.90
2018-08-20T15:15:36.066Z,29.90
2018-08-20T15:18:05.175Z,29.90
2018-08-20T15:20:33.453Z,29.90
2018-08-20T15:23:01.774Z,29.90
2018-08-20T15:25:30.076Z,29.70
2018-08-20T15:27:58.338Z,29.70
2018-08-20T15:30:26.718Z,29.70
2018-08-20T15:32:55.020Z,29.70
2018-08-20T15:35:23.301Z,29.60
2018-08-20T15:37:51.770Z,29.50
2018-08-20T15:40:20.074Z,29.50
2018-08-20T15:42:48.569Z,29.60
2018-08-20T15:45:16.882Z,29.60
2018-08-20T15:47:45.132Z,29.60
2018-08-20T15:50:13.530Z,29.70
2018-08-20T15:52:41.998Z,29.70
2018-08-20T15:55:10.358Z,29.70
2018-08-20T15:57:38.629Z,29.70
2018-08-20T16:00:08.617Z,29.70
2018-08-20T16:02:37.294Z,29.60
2018-08-20T16:05:05.605Z,29.60
2018-08-20T16:07:33.877Z,29.60
2018-08-20T16:10:02.206Z,29.60
2018-08-20T16:12:30.793Z,29.50
2018-08-20T16:14:59.158Z,29.50
2018-08-20T16:17:27.607Z,29.50
2018-08-20T16:19:56.090Z,29.50
2018-08-20T16:22:24.613Z,29.40
2018-08-20T16:24:52.855Z,29.40
2018-08-20T16:27:21.190Z,29.40
2018-08-20T16:29:49.487Z,29.40
2018-08-20T16:32:17.809Z,29.30
2018-08-20T16:34:46.225Z,29.30
2018-08-20T16:37:14.558Z,29.20
2018-08-20T16:39:43.097Z,29.20
2018-08-20T16:42:11.496Z,29.20
2018-08-20T16:44:39.805Z,29.20
2018-08-20T16:47:08.133Z,29.20
2018-08-20T16:49:36.406Z,29.20
2018-08-20T16:52:04.858Z,29.20
2018-08-20T16:54:33.150Z,29.20
2018-08-20T16:57:01.464Z,29.20
2018-08-20T16:59:29.740Z,29.20
2018-08-20T17:01:58.061Z,29.20
2018-08-20T17:04:41.626Z,29.30
2018-08-20T17:07:09.911Z,29.20
2018-08-20T17:09:38.180Z,29.20
2018-08-20T17:12:06.461Z,29.20
2018-08-20T17:14:35.103Z,29.20
2018-08-20T17:17:03.402Z,29.20
2018-08-20T17:19:31.694Z,29.20
2018-08-20T17:21:59.991Z,29.10
2018-08-20T17:24:33.747Z,29.00
2018-08-20T17:27:02.362Z,28.90
2018-08-20T17:29:30.676Z,28.90
2018-08-20T17:32:00.754Z,28.90
2018-08-20T17:34:29.621Z,28.90
2018-08-20T17:36:58.235Z,28.80
2018-08-20T17:39:26.546Z,28.80
2018-08-20T17:41:54.853Z,28.80
2018-08-20T17:44:23.810Z,28.70
2018-08-20T17:46:52.116Z,28.60
2018-08-20T17:49:25.878Z,28.60
2018-08-20T17:51:54.245Z,28.60
2018-08-20T17:54:22.546Z,28.50
2018-08-20T17:56:50.844Z,28.40
2018-08-20T17:59:19.947Z,28.30
2018-08-20T18:01:48.226Z,28.30
2018-08-20T18:04:18.202Z,28.30
2018-08-20T18:06:49.823Z,28.30
2018-08-20T18:09:18.390Z,28.30
2018-08-20T18:11:51.493Z,28.20
2018-08-20T18:14:22.729Z,28.20
2018-08-20T18:16:51.083Z,28.20
2018-08-20T18:19:19.438Z,28.20
2018-08-20T18:21:48.041Z,28.20
2018-08-20T18:24:18.418Z,28.10
2018-08-20T18:26:51.785Z,28.20
2018-08-20T18:29:20.225Z,28.10
2018-08-20T18:31:55.796Z,28.10
2018-08-20T18:34:24.126Z,28.00
2018-08-20T18:36:52.591Z,28.00
2018-08-20T18:39:20.885Z,28.00
2018-08-20T18:41:56.127Z,28.00
2018-08-20T18:44:25.471Z,28.00
2018-08-20T18:46:54.193Z,28.00
2018-08-20T18:49:23.142Z,28.00
2018-08-20T18:51:56.849Z,28.00
2018-08-20T18:54:25.947Z,27.90
2018-08-20T18:56:59.318Z,27.90
2018-08-20T18:59:27.623Z,27.90
2018-08-20T19:01:55.909Z,27.90
2018-08-20T19:04:24.189Z,27.80
2018-08-20T19:06:56.796Z,27.80
2018-08-20T19:09:24.989Z,27.80
2018-08-20T19:11:53.310Z,27.80
2018-08-20T19:14:21.574Z,27.70
2018-08-20T19:16:49.852Z,27.70
2018-08-20T19:19:18.407Z,27.60
2018-08-20T19:21:47.177Z,27.60
2018-08-20T19:24:15.459Z,27.60
2018-08-20T19:26:43.820Z,27.60
2018-08-20T19:29:31.881Z,27.50
2018-08-20T19:32:00.150Z,27.50
2018-08-20T19:34:28.960Z,27.50
2018-08-20T19:36:57.261Z,27.50
2018-08-20T19:39:25.543Z,27.50
2018-08-20T19:41:53.843Z,27.40
2018-08-20T19:44:22.130Z,27.40
2018-08-20T19:46:51.193Z,27.40
2018-08-20T19:49:19.891Z,27.30
2018-08-20T19:51:49.622Z,27.30
2018-08-20T19:54:17.976Z,27.30
2018-08-20T19:56:46.226Z,27.30
2018-08-20T19:59:17.760Z,27.20
2018-08-20T20:01:46.057Z,27.20
2018-08-20T20:04:15.902Z,27.20
2018-08-20T20:06:44.593Z,27.20
2018-08-20T20:09:12.849Z,27.10
2018-08-20T20:11:42.626Z,27.10
2018-08-20T20:14:10.949Z,27.10
2018-08-20T20:16:44.633Z,27.10
2018-08-20T20:19:12.968Z,27.00
2018-08-20T20:21:41.249Z,27.00
2018-08-20T20:24:10.244Z,27.00
2018-08-20T20:26:38.605Z,26.90
2018-08-20T20:29:08.099Z,26.90
2018-08-20T20:31:37.857Z,26.90
2018-08-20T20:34:06.249Z,26.80
2018-08-20T20:36:34.943Z,26.90
2018-08-20T20:39:04.734Z,26.80
2018-08-20T20:41:33.281Z,26.70
2018-08-20T20:44:01.736Z,26.80
2018-08-20T20:46:30.301Z,26.70
2018-08-20T20:48:59.354Z,26.70
2018-08-20T20:51:28.005Z,26.70
2018-08-20T20:53:56.264Z,26.60
2018-08-20T20:56:26.031Z,26.60
2018-08-20T20:58:55.026Z,26.60
2018-08-20T21:01:24.218Z,26.60
2018-08-20T21:03:52.614Z,26.50
2018-08-20T21:06:20.915Z,26.50
2018-08-20T21:08:49.944Z,26.40
2018-08-20T21:11:19.743Z,26.40
2018-08-20T21:13:48.329Z,26.40
2018-08-20T21:16:19.216Z,26.40
2018-08-20T21:18:50.214Z,26.30
2018-08-20T21:21:19.126Z,26.30
2018-08-20T21:23:47.498Z,26.30
2018-08-20T21:26:15.883Z,26.30
2018-08-20T21:28:45.280Z,26.20
2018-08-20T21:31:14.603Z,26.20
2018-08-20T21:33:43.610Z,26.20
2018-08-20T21:36:12.603Z,26.10
2018-08-20T21:38:41.084Z,26.10
2018-08-20T21:41:09.454Z,26.10
2018-08-20T21:43:43.274Z,26.10
2018-08-20T21:46:12.271Z,26.00
2018-08-20T21:48:41.001Z,26.00
2018-08-20T21:51:14.537Z,26.00
2018-08-20T21:53:42.809Z,26.00
2018-08-20T21:56:12.127Z,25.90
2018-08-20T21:58:41.669Z,25.90
2018-08-20T22:01:11.562Z,25.90
2018-08-20T22:03:40.426Z,25.80
2018-08-20T22:06:08.837Z,25.80
2018-08-20T22:08:37.154Z,25.80
2018-08-20T22:11:05.536Z,25.80
2018-08-20T22:13:33.810Z,25.80
2018-08-20T22:16:13.505Z,25.70
2018-08-20T22:18:43.081Z,25.70
2018-08-20T22:21:13.477Z,25.70
2018-08-20T22:23:42.929Z,25.60
2018-08-20T22:26:15.693Z,25.60
2018-08-20T22:28:44.039Z,25.60
2018-08-20T22:31:12.431Z,25.50
2018-08-20T22:33:40.713Z,25.50
2018-08-20T22:36:12.373Z,25.50
2018-08-20T22:38:57.472Z,25.50
2018-08-20T22:41:26.782Z,25.50
2018-08-20T22:43:55.105Z,25.40
2018-08-20T22:46:23.813Z,25.40
2018-08-20T22:49:02.385Z,25.40
2018-08-20T22:51:30.674Z,25.30
2018-08-20T22:54:00.642Z,25.30
2018-08-20T22:56:32.627Z,25.30
2018-08-20T22:59:05.518Z,25.30
2018-08-20T23:01:33.854Z,25.30
2018-08-20T23:04:02.153Z,25.20
2018-08-20T23:06:30.702Z,25.20
2018-08-20T23:08:59.287Z,25.20
2018-08-20T23:11:40.114Z,25.20
2018-08-20T23:14:10.214Z,25.10
2018-08-20T23:16:38.927Z,25.10
2018-08-20T23:19:07.497Z,25.10
2018-08-20T23:21:41.065Z,25.10
2018-08-20T23:24:09.890Z,25.00
2018-08-20T23:26:38.209Z,25.00
2018-08-20T23:29:06.519Z,25.00
2018-08-20T23:31:34.841Z,25.00
2018-08-20T23:34:03.173Z,24.90
2018-08-20T23:36:31.431Z,24.90
2018-08-20T23:39:00.128Z,24.90
2018-08-20T23:41:28.674Z,24.90
2018-08-20T23:44:00.091Z,24.90
2018-08-20T23:47:36.590Z,24.80
2018-08-20T23:50:05.586Z,24.80
2018-08-20T23:52:33.905Z,24.80
2018-08-20T23:55:02.258Z,24.70
2018-08-20T23:57:30.568Z,24.70
2018-08-20T23:59:58.845Z,24.70
